sensor_id;sensor_type;location;lat;lon;timestamp;P1;durP1;ratioP1;P2;durP2;ratioP2
2674;SDS011;1347;42.122;24.746;2024-01-30T00:00:05;10.23;;;6.27;;
2674;SDS011;1347;42.122;24.746;2024-01-30T00:02:34;10.70;;;5.93;;
2674;SDS011;1347;42.122;24.746;2024-01-30T00:05:01;9.13;;;5.67;;
2674;SDS011;1347;42.122;24.746;2024-01-30T00:07:28;9.53;;;5.00;;
2674;SDS011;1347;42.122;24.746;2024-01-30T00:09:57;8.60;;;5.37;;
2674;SDS011;1347;42.122;24.746;2024-01-30T00:12:24;7.47;;;5.90;;
2674;SDS011;1347;42.122;24.746;2024-01-30T00:14:51;7.73;;;5.17;;
2674;SDS011;1347;42.122;24.746;2024-01-30T00:17:18;8.17;;;6.43;;
2674;SDS011;1347;42.122;24.746;2024-01-30T00:19:46;8.23;;;5.63;;
2674;SDS011;1347;42.122;24.746;2024-01-30T00:22:13;8.17;;;4.73;;
2674;SDS011;1347;42.122;24.746;2024-01-30T00:24:39;10.27;;;5.80;;
2674;SDS011;1347;42.122;24.746;2024-01-30T00:27:08;10.40;;;5.90;;
2674;SDS011;1347;42.122;24.746;2024-01-30T00:29:35;11.60;;;7.20;;
2674;SDS011;1347;42.122;24.746;2024-01-30T00:32:01;6.27;;;4.87;;
2674;SDS011;1347;42.122;24.746;2024-01-30T00:34:28;8.77;;;5.47;;
2674;SDS011;1347;42.122;24.746;2024-01-30T00:36:55;10.10;;;6.57;;
2674;SDS011;1347;42.122;24.746;2024-01-30T00:39:22;8.67;;;6.13;;
2674;SDS011;1347;42.122;24.746;2024-01-30T00:41:49;14.83;;;6.37;;
2674;SDS011;1347;42.122;24.746;2024-01-30T00:44:17;9.37;;;5.50;;
2674;SDS011;1347;42.122;24.746;2024-01-30T00:46:44;6.83;;;5.33;;
2674;SDS011;1347;42.122;24.746;2024-01-30T00:49:10;8.30;;;5.80;;
2674;SDS011;1347;42.122;24.746;2024-01-30T00:51:37;10.43;;;6.47;;
2674;SDS011;1347;42.122;24.746;2024-01-30T00:54:04;11.73;;;7.50;;
2674;SDS011;1347;42.122;24.746;2024-01-30T00:56:32;12.90;;;7.23;;
2674;SDS011;1347;42.122;24.746;2024-01-30T00:58:58;9.87;;;6.23;;
2674;SDS011;1347;42.122;24.746;2024-01-30T01:01:26;8.57;;;5.10;;
2674;SDS011;1347;42.122;24.746;2024-01-30T01:03:53;9.03;;;5.60;;
2674;SDS011;1347;42.122;24.746;2024-01-30T01:06:20;9.27;;;5.60;;
2674;SDS011;1347;42.122;24.746;2024-01-30T01:08:47;10.07;;;5.33;;
2674;SDS011;1347;42.122;24.746;2024-01-30T01:11:14;14.33;;;7.47;;
2674;SDS011;1347;42.122;24.746;2024-01-30T01:13:41;8.37;;;5.97;;
2674;SDS011;1347;42.122;24.746;2024-01-30T01:16:07;10.27;;;6.30;;
2674;SDS011;1347;42.122;24.746;2024-01-30T01:18:36;11.07;;;6.23;;
2674;SDS011;1347;42.122;24.746;2024-01-30T01:21:03;13.73;;;7.03;;
2674;SDS011;1347;42.122;24.746;2024-01-30T01:23:30;9.10;;;6.00;;
2674;SDS011;1347;42.122;24.746;2024-01-30T01:25:56;8.23;;;5.73;;
2674;SDS011;1347;42.122;24.746;2024-01-30T01:28:24;8.77;;;6.73;;
2674;SDS011;1347;42.122;24.746;2024-01-30T01:30:52;9.97;;;7.40;;
2674;SDS011;1347;42.122;24.746;2024-01-30T01:33:24;12.20;;;7.40;;
2674;SDS011;1347;42.122;24.746;2024-01-30T01:35:52;11.93;;;7.73;;
2674;SDS011;1347;42.122;24.746;2024-01-30T01:38:19;12.93;;;7.33;;
2674;SDS011;1347;42.122;24.746;2024-01-30T01:40:45;12.00;;;7.70;;
2674;SDS011;1347;42.122;24.746;2024-01-30T01:43:12;11.70;;;6.50;;
2674;SDS011;1347;42.122;24.746;2024-01-30T01:45:39;8.90;;;6.53;;
2674;SDS011;1347;42.122;24.746;2024-01-30T01:48:06;11.47;;;5.60;;
2674;SDS011;1347;42.122;24.746;2024-01-30T01:50:34;11.10;;;6.83;;
2674;SDS011;1347;42.122;24.746;2024-01-30T01:53:04;11.47;;;7.67;;
2674;SDS011;1347;42.122;24.746;2024-01-30T01:55:34;10.63;;;6.00;;
2674;SDS011;1347;42.122;24.746;2024-01-30T01:58:02;10.80;;;6.43;;
2674;SDS011;1347;42.122;24.746;2024-01-30T02:00:29;9.27;;;6.77;;
2674;SDS011;1347;42.122;24.746;2024-01-30T02:02:56;9.27;;;6.70;;
2674;SDS011;1347;42.122;24.746;2024-01-30T02:05:24;10.70;;;7.00;;
2674;SDS011;1347;42.122;24.746;2024-01-30T02:07:51;13.43;;;6.93;;
2674;SDS011;1347;42.122;24.746;2024-01-30T02:10:20;11.13;;;6.57;;
2674;SDS011;1347;42.122;24.746;2024-01-30T02:12:48;8.70;;;6.77;;
2674;SDS011;1347;42.122;24.746;2024-01-30T02:15:15;6.70;;;5.10;;
2674;SDS011;1347;42.122;24.746;2024-01-30T02:17:41;9.80;;;6.57;;
2674;SDS011;1347;42.122;24.746;2024-01-30T02:20:09;10.83;;;6.93;;
2674;SDS011;1347;42.122;24.746;2024-01-30T02:22:38;12.03;;;8.30;;
2674;SDS011;1347;42.122;24.746;2024-01-30T02:25:07;10.00;;;7.73;;
2674;SDS011;1347;42.122;24.746;2024-01-30T02:27:34;12.37;;;9.37;;
2674;SDS011;1347;42.122;24.746;2024-01-30T02:30:01;11.00;;;8.10;;
2674;SDS011;1347;42.122;24.746;2024-01-30T02:32:28;12.23;;;8.30;;
2674;SDS011;1347;42.122;24.746;2024-01-30T02:34:55;12.93;;;8.43;;
2674;SDS011;1347;42.122;24.746;2024-01-30T02:37:22;12.17;;;9.20;;
2674;SDS011;1347;42.122;24.746;2024-01-30T02:39:50;15.23;;;10.00;;
2674;SDS011;1347;42.122;24.746;2024-01-30T02:42:17;15.80;;;8.30;;
2674;SDS011;1347;42.122;24.746;2024-01-30T02:44:44;14.27;;;8.60;;
2674;SDS011;1347;42.122;24.746;2024-01-30T02:47:11;12.83;;;8.33;;
2674;SDS011;1347;42.122;24.746;2024-01-30T02:49:37;11.97;;;8.43;;
2674;SDS011;1347;42.122;24.746;2024-01-30T02:52:04;12.63;;;8.60;;
2674;SDS011;1347;42.122;24.746;2024-01-30T02:54:31;12.23;;;8.33;;
2674;SDS011;1347;42.122;24.746;2024-01-30T02:57:00;13.53;;;9.40;;
2674;SDS011;1347;42.122;24.746;2024-01-30T02:59:26;13.33;;;9.10;;
2674;SDS011;1347;42.122;24.746;2024-01-30T03:01:53;11.53;;;8.73;;
2674;SDS011;1347;42.122;24.746;2024-01-30T03:04:20;14.50;;;8.03;;
2674;SDS011;1347;42.122;24.746;2024-01-30T03:06:47;12.83;;;8.43;;
2674;SDS011;1347;42.122;24.746;2024-01-30T03:09:15;11.63;;;9.27;;
2674;SDS011;1347;42.122;24.746;2024-01-30T03:11:43;13.10;;;9.30;;
2674;SDS011;1347;42.122;24.746;2024-01-30T03:14:11;24.23;;;9.37;;
2674;SDS011;1347;42.122;24.746;2024-01-30T03:16:38;14.27;;;9.60;;
2674;SDS011;1347;42.122;24.746;2024-01-30T03:19:05;15.77;;;9.77;;
2674;SDS011;1347;42.122;24.746;2024-01-30T03:21:34;11.93;;;9.37;;
2674;SDS011;1347;42.122;24.746;2024-01-30T03:24:01;13.33;;;9.70;;
2674;SDS011;1347;42.122;24.746;2024-01-30T03:26:28;14.97;;;8.97;;
2674;SDS011;1347;42.122;24.746;2024-01-30T03:28:55;13.10;;;8.57;;
2674;SDS011;1347;42.122;24.746;2024-01-30T03:31:23;14.90;;;9.33;;
2674;SDS011;1347;42.122;24.746;2024-01-30T03:33:50;16.80;;;9.30;;
2674;SDS011;1347;42.122;24.746;2024-01-30T03:36:17;12.40;;;9.60;;
2674;SDS011;1347;42.122;24.746;2024-01-30T03:38:43;13.80;;;8.70;;
2674;SDS011;1347;42.122;24.746;2024-01-30T03:41:10;13.53;;;8.70;;
2674;SDS011;1347;42.122;24.746;2024-01-30T03:43:37;16.80;;;9.50;;
2674;SDS011;1347;42.122;24.746;2024-01-30T03:46:04;10.27;;;7.97;;
2674;SDS011;1347;42.122;24.746;2024-01-30T03:48:32;15.13;;;9.27;;
2674;SDS011;1347;42.122;24.746;2024-01-30T03:50:59;13.63;;;9.07;;
2674;SDS011;1347;42.122;24.746;2024-01-30T03:53:26;14.40;;;10.20;;
2674;SDS011;1347;42.122;24.746;2024-01-30T03:55:53;22.20;;;10.57;;
2674;SDS011;1347;42.122;24.746;2024-01-30T03:58:20;15.73;;;10.17;;
2674;SDS011;1347;42.122;24.746;2024-01-30T04:00:47;14.17;;;9.23;;
2674;SDS011;1347;42.122;24.746;2024-01-30T04:03:14;13.87;;;9.47;;
2674;SDS011;1347;42.122;24.746;2024-01-30T04:05:43;14.40;;;10.07;;
2674;SDS011;1347;42.122;24.746;2024-01-30T04:08:10;16.60;;;10.40;;
2674;SDS011;1347;42.122;24.746;2024-01-30T04:10:36;11.57;;;8.03;;
2674;SDS011;1347;42.122;24.746;2024-01-30T04:13:03;15.17;;;9.63;;
2674;SDS011;1347;42.122;24.746;2024-01-30T04:15:30;14.23;;;9.60;;
2674;SDS011;1347;42.122;24.746;2024-01-30T04:17:57;12.03;;;8.67;;
2674;SDS011;1347;42.122;24.746;2024-01-30T04:20:25;17.37;;;9.80;;
2674;SDS011;1347;42.122;24.746;2024-01-30T04:22:53;16.80;;;10.90;;
2674;SDS011;1347;42.122;24.746;2024-01-30T04:25:20;16.90;;;9.87;;
2674;SDS011;1347;42.122;24.746;2024-01-30T04:27:47;13.60;;;9.20;;
2674;SDS011;1347;42.122;24.746;2024-01-30T04:30:14;15.10;;;9.90;;
2674;SDS011;1347;42.122;24.746;2024-01-30T04:32:41;15.50;;;10.17;;
2674;SDS011;1347;42.122;24.746;2024-01-30T04:35:08;15.70;;;10.37;;
2674;SDS011;1347;42.122;24.746;2024-01-30T04:37:35;19.90;;;12.97;;
2674;SDS011;1347;42.122;24.746;2024-01-30T04:40:04;15.73;;;10.90;;
2674;SDS011;1347;42.122;24.746;2024-01-30T04:42:32;16.37;;;10.80;;
2674;SDS011;1347;42.122;24.746;2024-01-30T04:44:59;18.17;;;10.90;;
2674;SDS011;1347;42.122;24.746;2024-01-30T04:47:25;19.70;;;11.13;;
2674;SDS011;1347;42.122;24.746;2024-01-30T04:49:52;18.63;;;12.40;;
2674;SDS011;1347;42.122;24.746;2024-01-30T04:52:19;18.80;;;12.23;;
2674;SDS011;1347;42.122;24.746;2024-01-30T04:54:46;22.33;;;13.27;;
2674;SDS011;1347;42.122;24.746;2024-01-30T04:57:14;20.00;;;12.30;;
2674;SDS011;1347;42.122;24.746;2024-01-30T04:59:41;20.27;;;12.43;;
2674;SDS011;1347;42.122;24.746;2024-01-30T05:02:08;20.50;;;14.03;;
2674;SDS011;1347;42.122;24.746;2024-01-30T05:04:35;21.17;;;12.77;;
2674;SDS011;1347;42.122;24.746;2024-01-30T05:07:02;22.97;;;15.47;;
2674;SDS011;1347;42.122;24.746;2024-01-30T05:09:29;24.27;;;14.63;;
2674;SDS011;1347;42.122;24.746;2024-01-30T05:11:55;24.70;;;13.30;;
2674;SDS011;1347;42.122;24.746;2024-01-30T05:14:24;18.87;;;13.03;;
2674;SDS011;1347;42.122;24.746;2024-01-30T05:16:51;21.70;;;15.07;;
2674;SDS011;1347;42.122;24.746;2024-01-30T05:19:18;22.87;;;15.70;;
2674;SDS011;1347;42.122;24.746;2024-01-30T05:21:45;26.23;;;13.07;;
2674;SDS011;1347;42.122;24.746;2024-01-30T05:24:12;27.60;;;14.37;;
2674;SDS011;1347;42.122;24.746;2024-01-30T05:26:39;22.60;;;14.07;;
2674;SDS011;1347;42.122;24.746;2024-01-30T05:29:06;25.70;;;14.17;;
2674;SDS011;1347;42.122;24.746;2024-01-30T05:31:35;22.37;;;13.73;;
2674;SDS011;1347;42.122;24.746;2024-01-30T05:34:02;27.30;;;16.13;;
2674;SDS011;1347;42.122;24.746;2024-01-30T05:36:29;19.63;;;13.47;;
2674;SDS011;1347;42.122;24.746;2024-01-30T05:38:56;18.37;;;10.87;;
2674;SDS011;1347;42.122;24.746;2024-01-30T05:41:23;18.53;;;12.53;;
2674;SDS011;1347;42.122;24.746;2024-01-30T05:43:50;20.53;;;12.17;;
2674;SDS011;1347;42.122;24.746;2024-01-30T05:46:17;22.57;;;13.20;;
2674;SDS011;1347;42.122;24.746;2024-01-30T05:48:45;17.97;;;12.27;;
2674;SDS011;1347;42.122;24.746;2024-01-30T05:51:12;20.17;;;12.53;;
2674;SDS011;1347;42.122;24.746;2024-01-30T05:53:39;26.43;;;13.50;;
2674;SDS011;1347;42.122;24.746;2024-01-30T05:56:06;22.33;;;12.47;;
2674;SDS011;1347;42.122;24.746;2024-01-30T05:58:33;27.27;;;12.33;;
2674;SDS011;1347;42.122;24.746;2024-01-30T06:01:02;27.67;;;13.97;;
2674;SDS011;1347;42.122;24.746;2024-01-30T06:03:29;17.90;;;12.13;;
2674;SDS011;1347;42.122;24.746;2024-01-30T06:05:57;20.17;;;12.67;;
2674;SDS011;1347;42.122;24.746;2024-01-30T06:08:24;26.17;;;13.43;;
2674;SDS011;1347;42.122;24.746;2024-01-30T06:10:51;21.70;;;12.30;;
2674;SDS011;1347;42.122;24.746;2024-01-30T06:13:18;23.50;;;14.97;;
2674;SDS011;1347;42.122;24.746;2024-01-30T06:15:46;17.50;;;12.27;;
2674;SDS011;1347;42.122;24.746;2024-01-30T06:18:13;19.73;;;11.90;;
2674;SDS011;1347;42.122;24.746;2024-01-30T06:20:40;20.00;;;14.03;;
2674;SDS011;1347;42.122;24.746;2024-01-30T06:23:08;20.40;;;14.30;;
2674;SDS011;1347;42.122;24.746;2024-01-30T06:25:35;20.40;;;13.43;;
2674;SDS011;1347;42.122;24.746;2024-01-30T06:28:02;24.40;;;14.03;;
2674;SDS011;1347;42.122;24.746;2024-01-30T06:30:29;23.67;;;13.40;;
2674;SDS011;1347;42.122;24.746;2024-01-30T06:32:56;26.60;;;12.80;;
2674;SDS011;1347;42.122;24.746;2024-01-30T06:35:23;24.80;;;12.60;;
2674;SDS011;1347;42.122;24.746;2024-01-30T06:37:49;21.80;;;14.20;;
2674;SDS011;1347;42.122;24.746;2024-01-30T06:40:18;19.37;;;13.70;;
2674;SDS011;1347;42.122;24.746;2024-01-30T06:42:45;21.60;;;14.40;;
2674;SDS011;1347;42.122;24.746;2024-01-30T06:45:11;28.43;;;14.93;;
2674;SDS011;1347;42.122;24.746;2024-01-30T06:47:38;21.40;;;14.37;;
2674;SDS011;1347;42.122;24.746;2024-01-30T06:50:06;18.43;;;13.40;;
2674;SDS011;1347;42.122;24.746;2024-01-30T06:52:33;25.77;;;13.47;;
2674;SDS011;1347;42.122;24.746;2024-01-30T06:55:00;19.03;;;13.67;;
2674;SDS011;1347;42.122;24.746;2024-01-30T06:57:29;19.87;;;12.43;;
2674;SDS011;1347;42.122;24.746;2024-01-30T06:59:56;28.53;;;15.17;;
2674;SDS011;1347;42.122;24.746;2024-01-30T07:02:23;23.90;;;13.50;;
2674;SDS011;1347;42.122;24.746;2024-01-30T07:04:49;22.00;;;14.07;;
2674;SDS011;1347;42.122;24.746;2024-01-30T07:07:16;23.27;;;13.80;;
2674;SDS011;1347;42.122;24.746;2024-01-30T07:09:43;21.60;;;14.97;;
2674;SDS011;1347;42.122;24.746;2024-01-30T07:12:09;23.57;;;13.43;;
2674;SDS011;1347;42.122;24.746;2024-01-30T07:14:38;17.20;;;11.57;;
2674;SDS011;1347;42.122;24.746;2024-01-30T07:17:05;20.60;;;12.33;;
2674;SDS011;1347;42.122;24.746;2024-01-30T07:19:32;19.90;;;12.97;;
2674;SDS011;1347;42.122;24.746;2024-01-30T07:22:00;20.13;;;13.33;;
2674;SDS011;1347;42.122;24.746;2024-01-30T07:24:27;18.80;;;13.57;;
2674;SDS011;1347;42.122;24.746;2024-01-30T07:26:54;19.60;;;13.83;;
2674;SDS011;1347;42.122;24.746;2024-01-30T07:29:21;22.47;;;14.37;;
2674;SDS011;1347;42.122;24.746;2024-01-30T07:31:49;17.67;;;12.20;;
2674;SDS011;1347;42.122;24.746;2024-01-30T07:34:16;19.30;;;13.00;;
2674;SDS011;1347;42.122;24.746;2024-01-30T07:36:43;21.60;;;11.90;;
2674;SDS011;1347;42.122;24.746;2024-01-30T07:39:11;22.47;;;13.43;;
2674;SDS011;1347;42.122;24.746;2024-01-30T07:41:38;18.00;;;12.30;;
2674;SDS011;1347;42.122;24.746;2024-01-30T07:44:05;14.70;;;11.23;;
2674;SDS011;1347;42.122;24.746;2024-01-30T07:46:32;20.10;;;11.70;;
2674;SDS011;1347;42.122;24.746;2024-01-30T07:49:00;26.07;;;11.50;;
2674;SDS011;1347;42.122;24.746;2024-01-30T07:51:27;24.83;;;11.70;;
2674;SDS011;1347;42.122;24.746;2024-01-30T07:53:57;17.00;;;10.93;;
2674;SDS011;1347;42.122;24.746;2024-01-30T07:56:24;14.53;;;9.43;;
2674;SDS011;1347;42.122;24.746;2024-01-30T07:58:50;15.00;;;10.20;;
2674;SDS011;1347;42.122;24.746;2024-01-30T08:01:18;14.93;;;10.53;;
2674;SDS011;1347;42.122;24.746;2024-01-30T08:03:45;18.20;;;9.73;;
2674;SDS011;1347;42.122;24.746;2024-01-30T08:06:13;10.97;;;8.50;;
2674;SDS011;1347;42.122;24.746;2024-01-30T08:08:40;11.93;;;8.43;;
2674;SDS011;1347;42.122;24.746;2024-01-30T08:11:07;19.30;;;9.87;;
2674;SDS011;1347;42.122;24.746;2024-01-30T08:13:34;15.50;;;9.83;;
2674;SDS011;1347;42.122;24.746;2024-01-30T08:16:01;13.33;;;9.23;;
2674;SDS011;1347;42.122;24.746;2024-01-30T08:18:28;13.60;;;9.47;;
2674;SDS011;1347;42.122;24.746;2024-01-30T08:20:55;13.33;;;9.00;;
2674;SDS011;1347;42.122;24.746;2024-01-30T08:23:23;16.90;;;9.13;;
2674;SDS011;1347;42.122;24.746;2024-01-30T08:25:50;14.13;;;9.87;;
2674;SDS011;1347;42.122;24.746;2024-01-30T08:28:17;13.60;;;9.97;;
2674;SDS011;1347;42.122;24.746;2024-01-30T08:30:44;13.03;;;9.17;;
2674;SDS011;1347;42.122;24.746;2024-01-30T08:33:11;16.30;;;8.53;;
2674;SDS011;1347;42.122;24.746;2024-01-30T08:35:38;17.20;;;9.93;;
2674;SDS011;1347;42.122;24.746;2024-01-30T08:38:13;16.90;;;10.50;;
2674;SDS011;1347;42.122;24.746;2024-01-30T08:40:41;14.47;;;10.20;;
2674;SDS011;1347;42.122;24.746;2024-01-30T08:43:09;19.30;;;10.70;;
2674;SDS011;1347;42.122;24.746;2024-01-30T08:45:39;14.80;;;9.90;;
2674;SDS011;1347;42.122;24.746;2024-01-30T08:48:12;20.53;;;10.37;;
2674;SDS011;1347;42.122;24.746;2024-01-30T08:50:39;13.87;;;9.50;;
2674;SDS011;1347;42.122;24.746;2024-01-30T08:53:06;13.00;;;9.20;;
2674;SDS011;1347;42.122;24.746;2024-01-30T08:55:33;11.10;;;8.37;;
2674;SDS011;1347;42.122;24.746;2024-01-30T08:58:01;14.40;;;8.47;;
2674;SDS011;1347;42.122;24.746;2024-01-30T09:00:30;13.77;;;7.67;;
2674;SDS011;1347;42.122;24.746;2024-01-30T09:02:56;12.57;;;8.03;;
2674;SDS011;1347;42.122;24.746;2024-01-30T09:05:24;10.90;;;7.10;;
2674;SDS011;1347;42.122;24.746;2024-01-30T09:07:51;12.20;;;8.00;;
2674;SDS011;1347;42.122;24.746;2024-01-30T09:10:17;11.40;;;7.90;;
2674;SDS011;1347;42.122;24.746;2024-01-30T09:12:44;11.67;;;8.43;;
2674;SDS011;1347;42.122;24.746;2024-01-30T09:15:13;10.07;;;6.60;;
2674;SDS011;1347;42.122;24.746;2024-01-30T09:17:40;11.20;;;6.87;;
2674;SDS011;1347;42.122;24.746;2024-01-30T09:20:07;13.07;;;7.30;;
2674;SDS011;1347;42.122;24.746;2024-01-30T09:22:35;15.77;;;9.10;;
2674;SDS011;1347;42.122;24.746;2024-01-30T09:25:02;13.43;;;7.60;;
2674;SDS011;1347;42.122;24.746;2024-01-30T09:27:29;19.20;;;9.63;;
2674;SDS011;1347;42.122;24.746;2024-01-30T09:29:56;14.80;;;9.50;;
2674;SDS011;1347;42.122;24.746;2024-01-30T09:32:24;17.47;;;14.17;;
2674;SDS011;1347;42.122;24.746;2024-01-30T09:34:51;14.60;;;10.03;;
2674;SDS011;1347;42.122;24.746;2024-01-30T09:37:18;15.37;;;9.80;;
2674;SDS011;1347;42.122;24.746;2024-01-30T09:39:45;14.40;;;10.80;;
2674;SDS011;1347;42.122;24.746;2024-01-30T09:42:16;13.90;;;12.17;;
2674;SDS011;1347;42.122;24.746;2024-01-30T09:44:47;14.40;;;11.70;;
2674;SDS011;1347;42.122;24.746;2024-01-30T09:47:17;15.77;;;12.27;;
2674;SDS011;1347;42.122;24.746;2024-01-30T09:49:46;19.13;;;12.50;;
2674;SDS011;1347;42.122;24.746;2024-01-30T09:52:14;9.40;;;7.73;;
2674;SDS011;1347;42.122;24.746;2024-01-30T09:54:41;12.50;;;8.70;;
2674;SDS011;1347;42.122;24.746;2024-01-30T09:57:10;12.37;;;8.30;;
2674;SDS011;1347;42.122;24.746;2024-01-30T09:59:37;14.03;;;8.07;;
2674;SDS011;1347;42.122;24.746;2024-01-30T10:02:04;8.80;;;7.10;;
2674;SDS011;1347;42.122;24.746;2024-01-30T10:04:33;11.57;;;6.90;;
2674;SDS011;1347;42.122;24.746;2024-01-30T10:07:01;11.40;;;7.20;;
2674;SDS011;1347;42.122;24.746;2024-01-30T10:09:31;9.40;;;6.90;;
2674;SDS011;1347;42.122;24.746;2024-01-30T10:11:58;12.07;;;7.80;;
2674;SDS011;1347;42.122;24.746;2024-01-30T10:14:25;28.37;;;14.47;;
2674;SDS011;1347;42.122;24.746;2024-01-30T10:16:52;14.27;;;9.97;;
2674;SDS011;1347;42.122;24.746;2024-01-30T10:19:19;12.13;;;8.30;;
2674;SDS011;1347;42.122;24.746;2024-01-30T10:21:46;13.70;;;9.60;;
2674;SDS011;1347;42.122;24.746;2024-01-30T10:24:14;19.90;;;11.10;;
2674;SDS011;1347;42.122;24.746;2024-01-30T10:26:43;18.97;;;11.67;;
2674;SDS011;1347;42.122;24.746;2024-01-30T10:29:10;14.00;;;9.33;;
2674;SDS011;1347;42.122;24.746;2024-01-30T10:31:37;15.73;;;7.60;;
2674;SDS011;1347;42.122;24.746;2024-01-30T10:34:04;9.90;;;6.90;;
2674;SDS011;1347;42.122;24.746;2024-01-30T10:36:31;7.57;;;6.20;;
2674;SDS011;1347;42.122;24.746;2024-01-30T10:39:06;10.87;;;6.60;;
2674;SDS011;1347;42.122;24.746;2024-01-30T10:41:35;11.13;;;7.47;;
2674;SDS011;1347;42.122;24.746;2024-01-30T10:44:09;9.63;;;7.03;;
2674;SDS011;1347;42.122;24.746;2024-01-30T10:46:38;7.40;;;5.70;;
2674;SDS011;1347;42.122;24.746;2024-01-30T10:49:05;10.67;;;7.20;;
2674;SDS011;1347;42.122;24.746;2024-01-30T10:51:33;9.80;;;7.67;;
2674;SDS011;1347;42.122;24.746;2024-01-30T10:54:01;15.87;;;8.40;;
2674;SDS011;1347;42.122;24.746;2024-01-30T10:56:31;11.40;;;7.60;;
2674;SDS011;1347;42.122;24.746;2024-01-30T10:59:01;9.77;;;6.37;;
2674;SDS011;1347;42.122;24.746;2024-01-30T11:01:29;8.53;;;6.60;;
2674;SDS011;1347;42.122;24.746;2024-01-30T11:03:56;10.90;;;6.90;;
2674;SDS011;1347;42.122;24.746;2024-01-30T11:06:24;9.73;;;6.80;;
2674;SDS011;1347;42.122;24.746;2024-01-30T11:09:00;8.60;;;6.10;;
2674;SDS011;1347;42.122;24.746;2024-01-30T11:11:29;10.17;;;7.50;;
2674;SDS011;1347;42.122;24.746;2024-01-30T11:14:00;9.73;;;6.77;;
2674;SDS011;1347;42.122;24.746;2024-01-30T11:16:30;8.33;;;6.43;;
2674;SDS011;1347;42.122;24.746;2024-01-30T11:19:00;9.77;;;6.20;;
2674;SDS011;1347;42.122;24.746;2024-01-30T11:21:27;7.30;;;6.27;;
2674;SDS011;1347;42.122;24.746;2024-01-30T11:23:57;12.17;;;6.97;;
2674;SDS011;1347;42.122;24.746;2024-01-30T11:26:27;10.13;;;6.50;;
2674;SDS011;1347;42.122;24.746;2024-01-30T11:28:55;13.27;;;6.97;;
2674;SDS011;1347;42.122;24.746;2024-01-30T11:31:23;11.10;;;7.60;;
2674;SDS011;1347;42.122;24.746;2024-01-30T11:33:52;10.87;;;7.20;;
2674;SDS011;1347;42.122;24.746;2024-01-30T11:36:20;10.50;;;8.07;;
2674;SDS011;1347;42.122;24.746;2024-01-30T11:38:51;9.03;;;6.80;;
2674;SDS011;1347;42.122;24.746;2024-01-30T11:41:18;10.30;;;6.63;;
2674;SDS011;1347;42.122;24.746;2024-01-30T11:43:51;10.63;;;7.83;;
2674;SDS011;1347;42.122;24.746;2024-01-30T11:46:18;8.67;;;7.23;;
2674;SDS011;1347;42.122;24.746;2024-01-30T11:48:47;10.20;;;7.57;;
2674;SDS011;1347;42.122;24.746;2024-01-30T11:51:14;7.97;;;5.70;;
2674;SDS011;1347;42.122;24.746;2024-01-30T11:53:43;9.50;;;6.80;;
2674;SDS011;1347;42.122;24.746;2024-01-30T11:56:12;7.60;;;6.00;;
2674;SDS011;1347;42.122;24.746;2024-01-30T11:58:42;8.47;;;6.50;;
2674;SDS011;1347;42.122;24.746;2024-01-30T12:01:09;10.43;;;7.00;;
2674;SDS011;1347;42.122;24.746;2024-01-30T12:03:36;17.40;;;8.53;;
2674;SDS011;1347;42.122;24.746;2024-01-30T12:06:05;7.27;;;5.00;;
2674;SDS011;1347;42.122;24.746;2024-01-30T12:08:32;6.10;;;4.10;;
2674;SDS011;1347;42.122;24.746;2024-01-30T12:10:59;5.40;;;4.33;;
2674;SDS011;1347;42.122;24.746;2024-01-30T12:13:27;7.50;;;5.20;;
2674;SDS011;1347;42.122;24.746;2024-01-30T12:15:55;6.67;;;5.00;;
2674;SDS011;1347;42.122;24.746;2024-01-30T12:18:22;6.27;;;4.40;;
2674;SDS011;1347;42.122;24.746;2024-01-30T12:20:56;6.57;;;5.33;;
2674;SDS011;1347;42.122;24.746;2024-01-30T12:23:25;6.07;;;4.13;;
2674;SDS011;1347;42.122;24.746;2024-01-30T12:25:53;9.07;;;4.70;;
2674;SDS011;1347;42.122;24.746;2024-01-30T12:28:20;8.00;;;6.50;;
2674;SDS011;1347;42.122;24.746;2024-01-30T12:30:47;8.27;;;5.23;;
2674;SDS011;1347;42.122;24.746;2024-01-30T12:33:16;5.90;;;4.57;;
2674;SDS011;1347;42.122;24.746;2024-01-30T12:35:45;6.17;;;4.10;;
2674;SDS011;1347;42.122;24.746;2024-01-30T12:38:12;7.73;;;5.37;;
2674;SDS011;1347;42.122;24.746;2024-01-30T12:40:41;5.50;;;4.40;;
2674;SDS011;1347;42.122;24.746;2024-01-30T12:43:08;6.03;;;4.83;;
2674;SDS011;1347;42.122;24.746;2024-01-30T12:45:35;8.07;;;5.80;;
2674;SDS011;1347;42.122;24.746;2024-01-30T12:48:02;7.43;;;4.67;;
2674;SDS011;1347;42.122;24.746;2024-01-30T12:50:30;9.10;;;4.37;;
2674;SDS011;1347;42.122;24.746;2024-01-30T12:52:58;7.30;;;5.37;;
2674;SDS011;1347;42.122;24.746;2024-01-30T12:55:25;5.77;;;4.73;;
2674;SDS011;1347;42.122;24.746;2024-01-30T12:57:55;6.30;;;4.90;;
2674;SDS011;1347;42.122;24.746;2024-01-30T13:00:22;7.80;;;5.10;;
2674;SDS011;1347;42.122;24.746;2024-01-30T13:02:49;7.10;;;5.17;;
2674;SDS011;1347;42.122;24.746;2024-01-30T13:05:16;7.60;;;4.77;;
2674;SDS011;1347;42.122;24.746;2024-01-30T13:07:43;6.30;;;5.33;;
2674;SDS011;1347;42.122;24.746;2024-01-30T13:10:10;11.23;;;5.90;;
2674;SDS011;1347;42.122;24.746;2024-01-30T13:12:38;10.13;;;5.63;;
2674;SDS011;1347;42.122;24.746;2024-01-30T13:15:07;10.50;;;6.10;;
2674;SDS011;1347;42.122;24.746;2024-01-30T13:17:36;6.27;;;5.17;;
2674;SDS011;1347;42.122;24.746;2024-01-30T13:20:03;8.80;;;5.00;;
2674;SDS011;1347;42.122;24.746;2024-01-30T13:22:33;18.70;;;6.10;;
2674;SDS011;1347;42.122;24.746;2024-01-30T13:25:00;11.37;;;5.10;;
2674;SDS011;1347;42.122;24.746;2024-01-30T13:27:27;6.63;;;5.20;;
2674;SDS011;1347;42.122;24.746;2024-01-30T13:29:54;8.40;;;5.10;;
2674;SDS011;1347;42.122;24.746;2024-01-30T13:32:23;12.03;;;5.47;;
2674;SDS011;1347;42.122;24.746;2024-01-30T13:34:50;12.00;;;5.10;;
2674;SDS011;1347;42.122;24.746;2024-01-30T13:37:17;10.10;;;5.60;;
2674;SDS011;1347;42.122;24.746;2024-01-30T13:39:44;6.87;;;5.10;;
2674;SDS011;1347;42.122;24.746;2024-01-30T13:42:11;10.80;;;6.37;;
2674;SDS011;1347;42.122;24.746;2024-01-30T13:44:37;10.67;;;6.50;;
2674;SDS011;1347;42.122;24.746;2024-01-30T13:47:04;11.50;;;6.50;;
2674;SDS011;1347;42.122;24.746;2024-01-30T13:49:33;12.63;;;6.03;;
2674;SDS011;1347;42.122;24.746;2024-01-30T13:52:01;8.00;;;5.27;;
2674;SDS011;1347;42.122;24.746;2024-01-30T13:54:28;12.00;;;5.60;;
2674;SDS011;1347;42.122;24.746;2024-01-30T13:56:55;9.70;;;6.37;;
2674;SDS011;1347;42.122;24.746;2024-01-30T13:59:22;14.00;;;6.27;;
2674;SDS011;1347;42.122;24.746;2024-01-30T14:01:51;8.67;;;5.47;;
2674;SDS011;1347;42.122;24.746;2024-01-30T14:04:18;7.40;;;4.90;;
2674;SDS011;1347;42.122;24.746;2024-01-30T14:06:46;6.83;;;5.60;;
2674;SDS011;1347;42.122;24.746;2024-01-30T14:09:13;7.80;;;5.57;;
2674;SDS011;1347;42.122;24.746;2024-01-30T14:11:41;8.57;;;5.13;;
2674;SDS011;1347;42.122;24.746;2024-01-30T14:14:08;9.40;;;5.77;;
2674;SDS011;1347;42.122;24.746;2024-01-30T14:16:35;6.43;;;5.10;;
2674;SDS011;1347;42.122;24.746;2024-01-30T14:19:03;8.40;;;5.23;;
2674;SDS011;1347;42.122;24.746;2024-01-30T14:21:30;7.90;;;4.60;;
2674;SDS011;1347;42.122;24.746;2024-01-30T14:23:58;7.73;;;5.00;;
2674;SDS011;1347;42.122;24.746;2024-01-30T14:26:25;9.17;;;5.37;;
2674;SDS011;1347;42.122;24.746;2024-01-30T14:28:52;10.73;;;5.80;;
2674;SDS011;1347;42.122;24.746;2024-01-30T14:31:20;7.53;;;5.90;;
2674;SDS011;1347;42.122;24.746;2024-01-30T14:33:49;7.60;;;4.57;;
2674;SDS011;1347;42.122;24.746;2024-01-30T14:36:16;8.20;;;6.10;;
2674;SDS011;1347;42.122;24.746;2024-01-30T14:38:43;9.10;;;5.57;;
2674;SDS011;1347;42.122;24.746;2024-01-30T14:41:11;10.07;;;5.43;;
2674;SDS011;1347;42.122;24.746;2024-01-30T14:43:38;7.27;;;5.10;;
2674;SDS011;1347;42.122;24.746;2024-01-30T14:46:05;7.40;;;5.30;;
2674;SDS011;1347;42.122;24.746;2024-01-30T14:48:32;18.83;;;5.40;;